createdAt,value
2023-04-08T00:00:00.847Z,193.50
2023-04-08T00:05:03.676Z,188.10
2023-04-08T00:10:07.159Z,187.17
2023-04-08T00:15:10.693Z,194.60
2023-04-08T00:20:13.313Z,133.73
2023-04-08T00:25:16.142Z,92.80
2023-04-08T00:30:18.838Z,96.73
2023-04-08T00:35:21.984Z,97.63
2023-04-08T00:40:25.038Z,113.60
2023-04-08T00:45:27.822Z,162.57
2023-04-08T00:50:30.782Z,177.37
2023-04-08T00:55:33.356Z,186.40
2023-04-08T01:00:43.167Z,190.37
2023-04-08T01:06:26.425Z,94.83
2023-04-08T01:11:34.533Z,174.73
2023-04-08T01:16:42.612Z,190.27
2023-04-08T01:21:45.909Z,95.43
2023-04-08T01:26:50.185Z,100.37
2023-04-08T01:31:55.196Z,95.77
2023-04-08T01:36:59.636Z,178.00
2023-04-08T01:42:03.001Z,190.57
2023-04-08T01:47:05.936Z,197.90
2023-04-08T01:52:10.784Z,197.33
2023-04-08T01:57:21.202Z,127.30
2023-04-08T02:02:26.804Z,102.03
2023-04-08T02:07:29.488Z,187.70
2023-04-08T02:12:33.697Z,191.03
2023-04-08T02:17:47.435Z,199.40
2023-04-08T02:23:06.014Z,94.33
2023-04-08T02:28:11.725Z,193.83
2023-04-08T02:33:15.081Z,114.07
2023-04-08T02:38:17.760Z,96.43
2023-04-08T02:43:20.579Z,94.60
2023-04-08T02:48:23.564Z,91.20
2023-04-08T02:53:26.683Z,126.67
2023-04-08T02:58:29.586Z,180.93
2023-04-08T03:03:32.430Z,189.03
2023-04-08T03:08:35.099Z,194.83
2023-04-08T03:13:38.011Z,197.17
2023-04-08T03:18:40.544Z,195.03
2023-04-08T03:23:43.048Z,154.17
2023-04-08T03:28:45.645Z,92.67
2023-04-08T03:33:48.309Z,96.47
2023-04-08T03:38:51.289Z,95.53
2023-04-08T03:43:54.349Z,99.23
2023-04-08T03:48:56.887Z,142.67
2023-04-08T03:53:59.424Z,192.67
2023-04-08T03:59:02.075Z,198.90
2023-04-08T04:04:04.961Z,195.97
2023-04-08T04:09:07.636Z,195.27
2023-04-08T04:14:10.171Z,210.43
2023-04-08T04:19:12.760Z,176.33
2023-04-08T04:24:15.554Z,102.80
2023-04-08T04:29:18.076Z,101.53
2023-04-08T04:34:20.834Z,105.93
2023-04-08T04:39:23.690Z,104.03
2023-04-08T04:44:26.325Z,129.57
2023-04-08T04:49:29.023Z,190.90
2023-04-08T04:54:31.508Z,212.87
2023-04-08T04:59:34.005Z,201.50
2023-04-08T05:04:36.665Z,206.47
2023-04-08T05:09:39.235Z,214.53
2023-04-08T05:14:42.450Z,194.43
2023-04-08T05:19:45.013Z,120.13
2023-04-08T05:24:47.545Z,113.03
2023-04-08T05:29:50.076Z,110.30
2023-04-08T05:34:52.987Z,107.23
2023-04-08T05:39:55.724Z,127.33
2023-04-08T05:44:58.381Z,175.67
2023-04-08T05:50:00.975Z,199.87
2023-04-08T05:55:03.613Z,206.83
2023-04-08T06:00:08.787Z,202.13
2023-04-08T06:05:12.536Z,187.63
2023-04-08T06:10:15.206Z,117.90
2023-04-08T06:15:17.833Z,104.40
2023-04-08T06:20:21.040Z,98.53
2023-04-08T06:25:24.147Z,102.57
2023-04-08T06:30:26.876Z,145.07
2023-04-08T06:35:29.735Z,201.53
2023-04-08T06:40:32.481Z,212.73
2023-04-08T06:45:35.641Z,214.80
2023-04-08T06:50:38.190Z,216.53
2023-04-08T06:55:40.946Z,224.50
2023-04-08T07:00:43.900Z,172.60
2023-04-08T07:05:47.411Z,100.47
2023-04-08T07:10:52.394Z,103.13
2023-04-08T07:15:55.286Z,118.30
2023-04-08T07:20:58.081Z,192.57
2023-04-08T07:26:06.514Z,234.90
2023-04-08T07:31:18.997Z,225.50
2023-04-08T07:36:21.957Z,113.60
2023-04-08T07:41:24.806Z,122.80
2023-04-08T07:46:27.492Z,172.50
2023-04-08T07:51:30.240Z,213.80
2023-04-08T07:56:32.904Z,242.20
2023-04-08T08:01:36.108Z,221.03
2023-04-08T08:06:38.774Z,222.93
2023-04-08T08:11:41.467Z,230.87
2023-04-08T08:16:44.848Z,168.57
2023-04-08T08:21:47.636Z,115.83
2023-04-08T08:26:50.253Z,118.50
2023-04-08T08:31:53.370Z,108.83
2023-04-08T08:36:56.238Z,151.63
2023-04-08T08:42:01.737Z,215.67
2023-04-08T08:47:05.490Z,216.83
2023-04-08T08:52:08.067Z,218.63
2023-04-08T08:57:21.200Z,222.37
2023-04-08T09:02:32.450Z,124.60
2023-04-08T09:07:41.966Z,260.30
2023-04-08T09:13:02.840Z,163.37
2023-04-08T09:18:23.583Z,224.93
2023-04-08T09:23:40.124Z,148.47
2023-04-08T09:28:44.013Z,207.70
2023-04-08T09:33:48.388Z,123.17
2023-04-08T09:38:51.461Z,124.33
2023-04-08T09:43:59.047Z,123.80
2023-04-08T09:49:15.948Z,224.83
2023-04-08T09:54:23.521Z,126.10
2023-04-08T09:59:28.237Z,155.03
2023-04-08T10:04:32.985Z,229.53
2023-04-08T10:09:38.316Z,246.23
2023-04-08T10:14:40.888Z,255.37
2023-04-08T10:19:43.491Z,212.03
2023-04-08T10:25:18.402Z,145.53
2023-04-08T10:30:31.767Z,143.50
2023-04-08T10:35:37.231Z,241.57
2023-04-08T10:40:42.827Z,239.57
2023-04-08T10:45:51.687Z,153.50
2023-04-08T10:50:59.712Z,137.83
2023-04-08T10:56:15.243Z,236.43
2023-04-08T11:01:18.546Z,129.13
2023-04-08T11:06:21.157Z,129.33
2023-04-08T11:11:29.647Z,129.97
2023-04-08T11:16:32.982Z,227.67
2023-04-08T11:21:39.203Z,234.40
2023-04-08T11:26:42.335Z,233.30
2023-04-08T11:31:45.334Z,154.73
2023-04-08T11:36:48.002Z,133.33
2023-04-08T11:41:50.657Z,120.73
2023-04-08T11:46:57.541Z,127.37
2023-04-08T11:52:03.665Z,214.87
2023-04-08T11:57:06.727Z,223.43
2023-04-08T12:02:09.397Z,211.17
2023-04-08T12:07:12.160Z,223.80
2023-04-08T12:12:14.799Z,180.80
2023-04-08T12:17:17.495Z,127.27
2023-04-08T12:22:20.748Z,127.13
2023-04-08T12:27:23.946Z,123.60
2023-04-08T12:32:26.885Z,146.03
2023-04-08T12:37:29.500Z,197.57
2023-04-08T12:42:32.067Z,226.30
2023-04-08T12:47:34.655Z,222.07
2023-04-08T12:52:37.390Z,215.30
2023-04-08T12:57:40.160Z,224.40
2023-04-08T13:02:42.942Z,201.50
2023-04-08T13:07:47.355Z,139.57
2023-04-08T13:12:50.682Z,130.30
2023-04-08T13:17:54.559Z,121.37
2023-04-08T13:22:57.436Z,162.27
2023-04-08T13:28:00.042Z,211.77
2023-04-08T13:33:02.676Z,213.03
2023-04-08T13:38:05.260Z,216.00
2023-04-08T13:43:08.386Z,227.87
2023-04-08T13:48:11.064Z,222.40
2023-04-08T13:53:13.984Z,198.23
2023-04-08T13:58:23.524Z,127.43
2023-04-08T14:03:28.260Z,148.80
2023-04-08T14:08:31.149Z,215.10
2023-04-08T14:13:34.102Z,210.83
2023-04-08T14:18:37.834Z,221.67
2023-04-08T14:23:40.567Z,226.57
2023-04-08T14:28:43.183Z,196.67
2023-04-08T14:33:45.832Z,135.57
2023-04-08T14:38:48.443Z,125.43
2023-04-08T14:43:50.998Z,115.07
2023-04-08T14:48:54.203Z,120.17
2023-04-08T14:53:56.956Z,140.50
2023-04-08T14:58:59.505Z,201.83
2023-04-08T15:04:02.328Z,214.07
2023-04-08T15:09:04.942Z,214.53
2023-04-08T15:14:07.691Z,218.47
2023-04-08T15:19:10.596Z,217.57
2023-04-08T15:24:14.261Z,185.00
2023-04-08T15:29:17.216Z,116.43
2023-04-08T15:34:19.886Z,115.23
2023-04-08T15:39:23.114Z,114.37
2023-04-08T15:44:26.202Z,122.87
2023-04-08T15:49:28.824Z,168.40
2023-04-08T15:54:32.364Z,208.33
2023-04-08T15:59:35.191Z,205.60
2023-04-08T16:04:37.806Z,204.43
2023-04-08T16:09:40.479Z,215.50
2023-04-08T16:14:43.133Z,196.20
2023-04-08T16:19:45.747Z,130.97
2023-04-08T16:24:48.378Z,109.20
2023-04-08T16:29:51.197Z,108.60
2023-04-08T16:34:54.505Z,110.30
2023-04-08T16:39:57.839Z,136.97
2023-04-08T16:45:01.367Z,203.73
2023-04-08T16:50:05.572Z,215.97
2023-04-08T16:55:08.723Z,215.17
2023-04-08T17:00:12.131Z,208.63
2023-04-08T17:05:14.896Z,143.37
2023-04-08T17:10:17.539Z,105.83
2023-04-08T17:15:20.104Z,107.70
2023-04-08T17:20:22.993Z,112.70
2023-04-08T17:25:26.382Z,106.87
2023-04-08T17:30:29.053Z,202.70
2023-04-08T17:35:31.867Z,197.03
2023-04-08T17:40:34.545Z,236.13
2023-04-08T17:45:37.428Z,213.37
2023-04-08T17:50:40.001Z,199.77
2023-04-08T17:55:42.791Z,192.97
2023-04-08T18:00:45.381Z,130.23
2023-04-08T18:05:47.962Z,108.07
2023-04-08T18:10:50.865Z,107.00
2023-04-08T18:15:53.982Z,100.17
2023-04-08T18:20:56.862Z,121.53
2023-04-08T18:25:59.432Z,177.43
2023-04-08T18:31:02.296Z,192.13
2023-04-08T18:36:12.893Z,191.63
2023-04-08T18:41:16.528Z,139.40
2023-04-08T18:46:20.127Z,102.90
2023-04-08T18:51:23.602Z,106.37
2023-04-08T18:56:26.859Z,114.30
2023-04-08T19:01:31.953Z,163.17
2023-04-08T19:06:36.152Z,198.23
2023-04-08T19:11:38.694Z,198.70
2023-04-08T19:16:41.774Z,192.90
2023-04-08T19:21:44.638Z,156.97
2023-04-08T19:26:49.511Z,105.87
2023-04-08T19:31:53.160Z,108.83
2023-04-08T19:36:56.341Z,121.53
2023-04-08T19:41:58.948Z,161.77
2023-04-08T19:47:01.651Z,198.53
2023-04-08T19:52:04.226Z,205.03
2023-04-08T19:57:09.445Z,204.03
2023-04-08T20:02:12.137Z,203.47
2023-04-08T20:07:14.793Z,155.87
2023-04-08T20:12:17.793Z,100.30
2023-04-08T20:17:21.106Z,97.73
2023-04-08T20:22:24.208Z,102.27
2023-04-08T20:27:27.899Z,114.27
2023-04-08T20:32:30.940Z,198.10
2023-04-08T20:37:33.863Z,227.77
2023-04-08T20:42:36.689Z,208.10
2023-04-08T20:47:39.443Z,207.70
2023-04-08T20:52:42.067Z,214.67
2023-04-08T20:57:44.730Z,158.60
2023-04-08T21:02:48.073Z,100.40
2023-04-08T21:07:51.058Z,103.07
2023-04-08T21:12:53.968Z,110.07
2023-04-08T21:17:56.754Z,109.50
2023-04-08T21:23:00.703Z,170.67
2023-04-08T21:28:03.233Z,200.87
2023-04-08T21:33:05.975Z,195.57
2023-04-08T21:38:08.556Z,200.87
2023-04-08T21:43:11.226Z,205.30
2023-04-08T21:48:13.816Z,177.70
2023-04-08T21:53:16.900Z,100.30
2023-04-08T21:58:19.704Z,90.97
2023-04-08T22:03:22.670Z,97.90
2023-04-08T22:08:25.698Z,94.80
2023-04-08T22:13:28.424Z,143.23
2023-04-08T22:18:31.032Z,179.23
2023-04-08T22:23:33.603Z,193.70
2023-04-08T22:28:36.882Z,185.73
2023-04-08T22:33:40.373Z,197.57
2023-04-08T22:38:43.022Z,198.83
2023-04-08T22:43:45.893Z,133.63
2023-04-08T22:48:49.833Z,92.57
2023-04-08T22:53:52.912Z,91.03
2023-04-08T22:58:56.410Z,88.97
2023-04-08T23:03:58.994Z,137.23
2023-04-08T23:09:01.661Z,177.67
2023-04-08T23:14:04.249Z,188.23
2023-04-08T23:19:07.122Z,203.30
2023-04-08T23:24:10.489Z,196.67
2023-04-08T23:29:13.110Z,183.10
2023-04-08T23:34:16.157Z,119.70
2023-04-08T23:39:20.076Z,89.00
2023-04-08T23:44:22.844Z,91.17
2023-04-08T23:49:25.754Z,87.67
2023-04-08T23:54:32.976Z,137.07
2023-04-08T23:59:35.665Z,192.53
